createdAt,value
2019-01-20T00:07:15.617Z,44.50
2019-01-20T00:17:21.046Z,44.60
2019-01-20T00:27:26.767Z,44.50
2019-01-20T00:37:32.463Z,44.50
2019-01-20T00:47:40.057Z,44.50
2019-01-20T00:57:46.126Z,44.50
2019-01-20T01:07:52.539Z,44.60
2019-01-20T01:17:58.190Z,44.60
2019-01-20T01:28:03.609Z,44.60
2019-01-20T01:38:09.002Z,44.60
2019-01-20T01:48:14.419Z,44.60
2019-01-20T01:58:19.870Z,44.60
2019-01-20T02:08:25.370Z,44.80
2019-01-20T02:18:30.816Z,44.60
2019-01-20T02:28:36.260Z,44.60
2019-01-20T02:38:41.723Z,44.70
2019-01-20T02:48:48.593Z,44.60
2019-01-20T02:58:54.005Z,44.60
2019-01-20T03:08:59.484Z,44.60
2019-01-20T03:19:05.504Z,44.70
2019-01-20T03:29:11.165Z,44.60
2019-01-20T03:39:16.512Z,44.70
2019-01-20T03:49:23.048Z,44.70
2019-01-20T03:59:28.425Z,44.70
2019-01-20T04:09:34.205Z,44.90
2019-01-20T04:19:39.782Z,44.70
2019-01-20T04:29:45.110Z,44.80
2019-01-20T04:39:50.916Z,44.80
2019-01-20T04:49:56.357Z,44.80
2019-01-20T05:00:01.714Z,44.80
2019-01-20T05:10:09.263Z,44.90
2019-01-20T05:20:14.921Z,45.00
2019-01-20T05:30:27.262Z,45.70
2019-01-20T05:40:32.688Z,45.00
2019-01-20T05:50:38.301Z,45.60
2019-01-20T06:00:43.728Z,45.00
2019-01-20T06:10:49.087Z,45.00
2019-01-20T06:20:54.486Z,45.20
2019-01-20T06:31:02.251Z,45.10
2019-01-20T06:41:07.708Z,45.10
2019-01-20T06:51:13.176Z,45.20
2019-01-20T07:01:18.502Z,45.20
2019-01-20T07:11:24.074Z,45.20
2019-01-20T07:21:29.484Z,45.20
2019-01-20T07:31:37.156Z,45.10
2019-01-20T07:41:42.545Z,45.20
2019-01-20T07:51:49.852Z,45.30
2019-01-20T08:01:55.273Z,45.30
2019-01-20T08:12:02.347Z,45.20
2019-01-20T08:22:08.109Z,45.20
2019-01-20T08:32:13.506Z,45.20
2019-01-20T08:42:18.923Z,45.20
2019-01-20T08:52:24.843Z,45.30
2019-01-20T09:02:30.286Z,45.40
2019-01-20T09:12:36.407Z,45.30
2019-01-20T09:22:44.682Z,45.30
2019-01-20T09:32:50.074Z,45.40
2019-01-20T09:42:55.517Z,45.40
2019-01-20T09:53:01.882Z,45.90
2019-01-20T10:03:07.600Z,46.40
2019-01-20T10:13:13.021Z,46.40
2019-01-20T10:23:21.087Z,46.10
2019-01-20T10:33:26.460Z,46.10
2019-01-20T10:43:33.631Z,46.20
2019-01-20T10:53:39.364Z,45.90
2019-01-20T11:03:44.984Z,45.10
2019-01-20T11:13:52.523Z,45.40
2019-01-20T11:23:59.657Z,45.40
2019-01-20T11:34:05.245Z,45.50
2019-01-20T11:44:16.824Z,45.60
2019-01-20T11:54:18.000Z,45.70
2019-01-20T12:04:26.013Z,45.50
2019-01-20T12:14:31.486Z,45.60
2019-01-20T12:24:38.244Z,45.60
2019-01-20T12:34:44.571Z,45.60
2019-01-20T12:44:51.668Z,45.70
2019-01-20T12:54:57.244Z,45.90
2019-01-20T13:05:03.594Z,45.90
2019-01-20T13:15:13.942Z,46.90
2019-01-20T13:25:25.528Z,46.30
2019-01-20T13:35:31.775Z,46.20
2019-01-20T13:45:38.785Z,46.20
2019-01-20T13:55:46.638Z,38.70
2019-01-20T14:05:52.315Z,39.00
2019-01-20T14:15:57.726Z,39.20
2019-01-20T14:26:03.174Z,40.00
2019-01-20T14:36:08.681Z,40.20
2019-01-20T14:46:14.103Z,40.60
2019-01-20T14:56:19.631Z,41.20
2019-01-20T15:06:25.192Z,42.00
2019-01-20T15:16:30.685Z,42.50
2019-01-20T15:26:36.073Z,42.90
2019-01-20T15:36:41.476Z,43.30
2019-01-20T15:46:46.968Z,42.80
2019-01-20T15:56:52.545Z,43.50
2019-01-20T16:06:58.077Z,43.60
2019-01-20T16:17:03.785Z,43.90
2019-01-20T16:27:09.524Z,44.60
2019-01-20T16:37:15.018Z,44.60
2019-01-20T16:47:20.460Z,44.80
2019-01-20T16:57:26.070Z,44.70
2019-01-20T17:07:31.532Z,44.90
2019-01-20T17:17:37.040Z,45.10
2019-01-20T17:27:42.660Z,45.10
2019-01-20T17:37:48.120Z,45.30
2019-01-20T17:47:53.696Z,45.90
2019-01-20T17:57:59.435Z,45.50
2019-01-20T18:08:05.143Z,42.30
2019-01-20T18:18:13.235Z,42.30
2019-01-20T18:28:18.714Z,42.80
2019-01-20T18:38:24.134Z,43.10
2019-01-20T18:48:30.488Z,43.40
2019-01-20T18:58:35.955Z,43.50
2019-01-20T19:08:41.457Z,43.60
2019-01-20T19:18:46.896Z,43.90
2019-01-20T19:28:52.368Z,44.00
2019-01-20T19:38:58.225Z,44.10
2019-01-20T19:49:03.606Z,44.20
2019-01-20T19:59:09.162Z,44.30
2019-01-20T20:09:14.586Z,44.50
2019-01-20T20:19:20.137Z,44.50
2019-01-20T20:29:25.679Z,44.50
2019-01-20T20:39:31.080Z,44.50
2019-01-20T20:49:36.448Z,44.60
2019-01-20T20:59:42.046Z,44.70
2019-01-20T21:09:47.552Z,44.80
2019-01-20T21:19:53.033Z,45.30
2019-01-20T21:29:58.541Z,44.70
2019-01-20T21:40:04.248Z,44.80
2019-01-20T21:50:20.856Z,44.70
2019-01-20T22:00:28.224Z,44.90
2019-01-20T22:10:33.674Z,44.90
2019-01-20T22:20:39.071Z,44.90
2019-01-20T22:30:44.509Z,45.00
2019-01-20T22:40:49.939Z,45.10
2019-01-20T22:50:55.710Z,45.00
2019-01-20T23:01:10.916Z,44.90
2019-01-20T23:11:16.270Z,45.00
2019-01-20T23:21:21.740Z,45.00
2019-01-20T23:31:27.207Z,45.00
2019-01-20T23:41:32.656Z,45.00
2019-01-20T23:51:38.153Z,45.00
